M I D A S
Marine Information and Data Acquisition System
Tripno 760 of the Zeeleeuw from 2004-06-25 06:46:14 to 2004-06-25 15:04:37
Back to CruiseResearch ActivitiesStationsMapUnderway DataData graphs

EquipmentUnitsComment
TimeDGPSUTC
LatitudeDGPSDM.mWGS84
LongitudeDGPSDM.mWGS84
TemperatureSBE03/SBE38deg celciusITS90
ConductivitySBE21S/mITS90
SalinitySBE21 Practical Salinity Units
ChlorophylAChelsea fluorimeterg/lCalibrated in Aceton
Missing or incorrect values are displayed as -999
Sea surface data collected by the RV Zeeleeuw from 2004-06-25 06:46:14 to 2004-06-25 15:04:37
Time Latitude Longitude Temperature Conductivity Salinity ChlorophylA
2004-06-25 06:47:18 51°13.66 2°55.967 18.958998 0.022845 0.120634 7.814648
2004-06-25 06:48:18 51°13.677 2°55.903 18.982528 0.022845 0.120639 7.848358
2004-06-25 06:49:18 51°13.697 2°55.791 18.998579 0.022845 0.120642 7.848358
2004-06-25 06:50:18 51°13.705 2°55.77 18.984006 0.022845 0.120642 7.814648
2004-06-25 06:51:18 51°13.701 2°55.758 19.095793 0.022845 0.120647 7.814648
2004-06-25 06:52:18 51°13.77 2°55.699 19.001616 0.022845 0.120653 7.814648
2004-06-25 06:53:18 51°13.873 2°55.603 19.010112 0.022845 0.120656 7.848358
2004-06-25 06:54:18 51°14 2°55.515 19.01081 0.022845 0.120663 7.814648
2004-06-25 06:55:23 51°14.146 2°55.411 19.034445 0.022845 0.12067 7.814648
2004-06-25 06:56:28 51°14.283 2°55.224 19.007322 0.022845 0.120671 7.780939
2004-06-25 06:57:28 51°14.403 2°55.018 18.993817 0.022845 0.12068 7.848358
2004-06-25 06:58:28 51°14.582 2°54.911 18.999769 0.022845 0.1207 7.814648
2004-06-25 06:59:28 51°14.76 2°54.799 19.048392 0.022845 0.120726 7.814648
2004-06-25 07:00:28 51°14.952 2°54.708 19.01832 0.022741 0.120202 7.848358
2004-06-25 07:01:32 51°15.158 2°54.616 19.02148 0.022741 0.120208 7.780939
2004-06-25 07:02:32 51°15.354 2°54.538 19.05233 0.022741 0.120203 7.814648
2004-06-25 07:03:33 51°15.557 2°54.453 19.06898 0.022741 0.120217 7.814648
2004-06-25 07:04:32 51°15.751 2°54.372 19.076033 0.022741 0.120224 7.848358
2004-06-25 07:05:37 51°15.962 2°54.288 19.082962 0.022741 0.120237 7.814648
2004-06-25 07:06:36 51°16.153 2°54.241 19.089521 0.022741 0.120244 7.814648
2004-06-25 07:07:37 51°16.255 2°54.279 19.099277 0.022845 0.120784 7.814648
2004-06-25 07:08:37 51°16.282 2°54.329 19.114728 0.022845 0.120779 7.848358
2004-06-25 07:09:37 51°16.291 2°54.371 19.122186 0.022845 0.120784 7.780939
2004-06-25 07:10:37 51°16.302 2°54.411 19.136812 0.022845 0.120784 7.814648
2004-06-25 07:11:37 51°16.332 2°54.461 19.145824 0.022845 0.120786 7.848358
2004-06-25 07:12:37 51°16.368 2°54.523 19.153934 0.022845 0.120786 7.848358
2004-06-25 07:13:37 51°16.399 2°54.588 19.169864 0.022845 0.120791 7.814648
2004-06-25 07:14:37 51°16.429 2°54.654 19.179567 0.022949 0.121336 7.780939
2004-06-25 07:15:37 51°16.454 2°54.726 19.18931 0.022845 0.120794 7.780939
2004-06-25 07:16:37 51°16.477 2°54.799 19.197456 0.022949 0.121336 7.780939
2004-06-25 07:17:37 51°16.502 2°54.869 19.214972 0.022949 0.121335 7.814648
2004-06-25 07:18:37 51°16.527 2°54.938 19.220783 0.022949 0.121338 7.814648
2004-06-25 07:19:41 51°16.554 2°55.011 19.234366 0.022949 0.121345 7.814648
2004-06-25 07:20:42 51°16.578 2°55.078 19.251054 0.022949 0.121343 7.848358
2004-06-25 07:21:41 51°16.603 2°55.14 19.263364 0.022949 0.121347 7.814648
2004-06-25 07:22:41 51°16.628 2°55.2 19.269007 0.022949 0.121348 7.848358
2004-06-25 07:23:41 51°16.655 2°55.263 19.275835 0.022949 0.121348 7.848358
2004-06-25 07:24:50 51°16.684 2°55.341 19.286668 0.022949 0.121352 7.814648
2004-06-25 07:25:49 51°16.704 2°55.418 19.299053 0.022949 0.121355 7.848358
2004-06-25 07:26:53 51°16.718 2°55.508 19.30032 0.022949 0.121352 7.814648
2004-06-25 07:27:50 51°16.724 2°55.59 19.314746 0.022949 0.121347 7.814648
2004-06-25 07:28:52 51°16.726 2°55.68 19.325615 0.022949 0.121352 7.814648
2004-06-25 07:29:53 51°16.725 2°55.766 19.336522 0.022949 0.121348 7.814648
2004-06-25 07:30:53 51°16.725 2°55.846 19.348286 0.022949 0.121347 7.814648
2004-06-25 07:31:53 51°16.729 2°55.928 19.353513 0.022949 0.121347 7.814648
2004-06-25 07:32:53 51°16.736 2°56.013 19.369643 0.022949 0.121345 7.814648
2004-06-25 07:33:53 51°16.745 2°56.092 19.381605 0.022949 0.121347 7.814648
2004-06-25 07:34:51 51°16.758 2°56.166 19.390749 0.022949 0.121348 7.814648
2004-06-25 07:35:53 51°16.777 2°56.241 19.407604 0.022949 0.12135 7.814648
2004-06-25 07:36:56 51°16.796 2°56.316 19.422212 0.022949 0.121352 7.814648
2004-06-25 07:37:57 51°16.816 2°56.387 19.425476 0.022949 0.121355 7.814648
2004-06-25 07:38:57 51°16.831 2°56.451 19.441997 0.022949 0.121359 7.780939
2004-06-25 07:39:57 51°16.847 2°56.511 19.455089 0.022949 0.121357 7.814648
2004-06-25 07:40:57 51°16.865 2°56.574 19.458799 0.022949 0.121359 7.814648
2004-06-25 07:41:57 51°16.885 2°56.637 19.465364 0.022949 0.12136 7.848358
2004-06-25 07:42:57 51°16.897 2°56.701 19.472907 0.022949 0.121362 7.814648
2004-06-25 07:43:57 51°16.901 2°56.777 19.479552 0.022949 0.121359 7.780939
2004-06-25 07:44:57 51°16.895 2°56.85 19.490762 0.022949 0.121357 7.814648
2004-06-25 07:45:57 51°16.885 2°56.915 19.50955 0.022949 0.121354 7.780939
2004-06-25 07:46:57 51°16.869 2°56.968 19.518554 0.022949 0.121347 7.814648
2004-06-25 07:47:57 51°16.851 2°57.006 19.51998 0.022949 0.121345 7.780939
2004-06-25 07:48:56 51°16.827 2°57.031 19.538516 0.022949 0.121352 7.780939
2004-06-25 07:49:57 51°16.788 2°57.031 19.546091 0.022949 0.121352 7.780939
2004-06-25 07:50:56 51°16.76 2°57.015 19.560752 0.022949 0.121354 7.814648
2004-06-25 07:51:57 51°16.746 2°57.014 19.565393 0.022949 0.121355 7.780939
2004-06-25 07:52:57 51°16.738 2°57.022 19.579561 0.022949 0.121357 7.848358
2004-06-25 07:53:57 51°16.733 2°57.039 19.596046 0.022949 0.121354 7.780939
2004-06-25 07:54:56 51°16.729 2°57.061 19.608742 0.022949 0.121359 7.780939
2004-06-25 07:55:57 51°16.727 2°57.084 19.616107 0.022949 0.121362 7.814648
2004-06-25 07:56:57 51°16.725 2°57.109 19.633722 0.022949 0.121366 7.814648
2004-06-25 07:57:57 51°16.723 2°57.133 19.644948 0.022949 0.121364 7.814648
2004-06-25 07:58:57 51°16.72 2°57.156 19.652837 0.022949 0.121371 7.814648
2004-06-25 07:59:57 51°16.715 2°57.176 19.662881 0.022949 0.121371 7.814648
2004-06-25 08:00:57 51°16.711 2°57.196 19.672151 0.022949 0.121372 7.780939
2004-06-25 08:01:57 51°16.71 2°57.219 19.687557 0.022949 0.121371 7.814648
2004-06-25 08:02:56 51°16.705 2°57.238 19.696905 0.022949 0.121376 7.814648
2004-06-25 08:03:57 51°16.697 2°57.256 19.711818 0.022949 0.121369 7.814648
2004-06-25 08:04:57 51°16.671 2°57.243 19.71515 0.022949 0.121367 7.814648
2004-06-25 08:05:56 51°16.652 2°57.189 19.731684 0.022949 0.121367 7.780939
2004-06-25 08:06:57 51°16.647 2°57.123 19.737736 0.022949 0.121366 7.814648
2004-06-25 08:07:56 51°16.652 2°57.053 19.754264 0.022949 0.121364 7.780939
2004-06-25 08:08:57 51°16.657 2°56.977 19.760558 0.022949 0.121359 7.814648
2004-06-25 08:09:57 51°16.653 2°56.912 19.768962 0.022949 0.121357 7.780939
2004-06-25 08:10:57 51°16.652 2°56.849 19.783292 0.022949 0.121357 7.814648
2004-06-25 08:11:57 51°16.665 2°56.795 19.794129 0.022949 0.121366 7.780939
2004-06-25 08:12:57 51°16.685 2°56.743 19.80261 0.022949 0.121366 7.780939
2004-06-25 08:13:56 51°16.709 2°56.681 19.8132 0.022949 0.121366 7.814648
2004-06-25 08:14:57 51°16.732 2°56.614 19.82744 0.022949 0.121367 7.814648
2004-06-25 08:15:57 51°16.752 2°56.557 19.832835 0.022949 0.121374 7.780939
2004-06-25 08:16:57 51°16.778 2°56.502 19.844515 0.022949 0.121378 7.780939
2004-06-25 08:17:57 51°16.804 2°56.442 19.855261 0.022949 0.121376 7.780939
2004-06-25 08:18:57 51°16.83 2°56.394 19.867019 0.022949 0.121384 7.780939
2004-06-25 08:19:57 51°16.858 2°56.341 19.873344 0.022949 0.121381 7.780939
2004-06-25 08:20:57 51°16.882 2°56.275 19.883639 0.022949 0.121381 7.814648
2004-06-25 08:21:57 51°16.907 2°56.211 19.897743 0.022949 0.121381 7.780939
2004-06-25 08:22:57 51°16.933 2°56.148 19.904146 0.022949 0.121381 7.780939
2004-06-25 08:23:57 51°16.958 2°56.085 19.915369 0.022949 0.121383 7.780939
2004-06-25 08:24:57 51°16.982 2°56.018 19.924848 0.022949 0.121383 7.780939
2004-06-25 08:25:57 51°17.004 2°55.946 19.937081 0.022949 0.121384 7.814648
2004-06-25 08:26:57 51°17.024 2°55.875 19.946598 0.022949 0.121388 7.780939
2004-06-25 08:27:57 51°17.041 2°55.814 19.960527 0.022949 0.121393 7.780939
2004-06-25 08:28:56 51°17.051 2°55.753 19.966762 0.022949 0.121398 7.814648
2004-06-25 08:29:56 51°17.07 2°55.69 19.980444 0.022949 0.121402 7.780939
2004-06-25 08:30:57 51°17.094 2°55.641 19.989308 0.022949 0.121412 7.780939
2004-06-25 08:31:57 51°17.13 2°55.604 19.99902 0.023053 0.121953 7.780939
2004-06-25 08:32:56 51°17.167 2°55.572 20.008286 0.022949 0.12141 7.814648
2004-06-25 08:33:57 51°17.209 2°55.541 20.01836 0.022949 0.121409 7.780939
2004-06-25 08:34:57 51°17.255 2°55.524 20.028796 0.023053 0.121956 7.780939
2004-06-25 08:35:56 51°17.307 2°55.515 20.036521 0.023053 0.121955 7.780939
2004-06-25 08:36:57 51°17.358 2°55.52 20.049341 0.022949 0.121407 7.780939
2004-06-25 08:37:57 51°17.387 2°55.532 20.057185 0.023053 0.121951 7.780939
2004-06-25 08:38:56 51°17.403 2°55.549 20.068586 0.023053 0.121956 7.780939
2004-06-25 08:39:57 51°17.419 2°55.566 20.079742 0.023053 0.121955 7.780939
2004-06-25 08:40:57 51°17.467 2°55.685 20.087785 0.023053 0.121946 7.780939
2004-06-25 08:41:57 51°17.361 2°55.821 20.095666 0.023053 0.121949 7.780939
2004-06-25 08:42:56 51°17.253 2°55.659 20.117686 0.023053 0.121956 7.780939
2004-06-25 08:43:57 51°17.143 2°55.368 20.13146 0.023053 0.121963 7.814648
2004-06-25 08:44:57 51°17.06 2°55.047 20.142728 0.023053 0.121965 7.780939
2004-06-25 08:45:56 51°16.985 2°54.729 20.152823 0.023053 0.121977 7.780939
2004-06-25 08:46:57 51°16.929 2°54.389 20.165742 0.023053 0.121979 7.74723
2004-06-25 08:47:57 51°16.913 2°54.04 20.177166 0.023053 0.121986 7.74723
2004-06-25 08:48:56 51°16.894 2°53.703 20.190161 0.023053 0.121994 7.74723
2004-06-25 08:49:57 51°16.885 2°53.351 20.20025 0.023053 0.121994 7.780939
2004-06-25 08:51:01 51°16.947 2°53.008 20.212354 0.023053 0.121998 7.780939
2004-06-25 08:52:01 51°17.082 2°52.732 20.222761 0.023053 0.122008 7.780939
2004-06-25 08:53:02 51°17.22 2°52.455 20.233288 0.023053 0.12201 7.74723
2004-06-25 08:54:02 51°17.37 2°52.209 20.240669 0.023053 0.122013 7.780939
2004-06-25 08:55:02 51°17.527 2°51.973 20.250225 0.023053 0.122022 7.780939
2004-06-25 08:56:00 51°17.683 2°51.755 20.261877 0.023053 0.122038 7.780939
2004-06-25 08:57:00 51°17.852 2°51.542 20.27385 0.023053 0.122038 7.780939
2004-06-25 08:58:01 51°18.033 2°51.335 20.281588 0.023053 0.122033 7.780939
2004-06-25 08:59:06 51°18.226 2°51.114 20.293598 0.023053 0.122039 7.780939
2004-06-25 09:00:06 51°18.399 2°50.918 20.300287 0.023053 0.122048 7.74723
2004-06-25 09:01:06 51°18.498 2°50.905 20.310923 0.023053 0.122039 7.780939
2004-06-25 09:02:06 51°18.507 2°50.92 20.319383 0.023053 0.122038 7.780939
2004-06-25 09:03:06 51°18.512 2°50.933 20.330016 0.023053 0.122031 7.780939
2004-06-25 09:04:06 51°18.518 2°50.945 20.340085 0.023053 0.122027 7.780939
2004-06-25 09:05:06 51°18.549 2°50.958 20.345843 0.023053 0.122024 7.74723
2004-06-25 09:06:06 51°18.601 2°50.978 20.353574 0.023053 0.122022 7.74723
2004-06-25 09:07:06 51°18.646 2°51.017 20.363035 0.023053 0.122024 7.74723
2004-06-25 09:08:06 51°18.687 2°51.055 20.368791 0.023053 0.122024 7.780939
2004-06-25 09:09:06 51°18.727 2°51.092 20.377767 0.023053 0.122017 7.780939
2004-06-25 09:10:06 51°18.765 2°51.141 20.389076 0.023053 0.122008 7.780939
2004-06-25 09:11:06 51°18.797 2°51.198 20.399257 0.023053 0.12201 7.74723
2004-06-25 09:12:06 51°18.83 2°51.256 20.40324 0.023053 0.122005 7.780939
2004-06-25 09:13:06 51°18.863 2°51.311 20.41016 0.023053 0.121998 7.74723
2004-06-25 09:14:06 51°18.897 2°51.363 20.420659 0.023053 0.121991 7.74723
2004-06-25 09:15:06 51°18.929 2°51.415 16.155589 4.399086 34.280923 5.690956
2004-06-25 09:16:06 51°18.961 2°51.467 16.084166 4.33613 34.217554 4.747093
2004-06-25 09:17:06 51°18.993 2°51.52 16.091444 4.331174 34.208899 4.645965
2004-06-25 09:18:08 51°19.025 2°51.574 16.073204 4.322948 34.164944 4.578546
2004-06-25 09:19:09 51°19.059 2°51.63 16.08468 4.327694 34.211377 4.578546
2004-06-25 09:20:09 51°19.089 2°51.687 16.088833 4.304809 34.002109 4.578546
2004-06-25 09:21:09 51°19.118 2°51.745 16.097438 4.32453 34.173818 4.612255
2004-06-25 09:22:09 51°19.149 2°51.803 16.112504 4.319362 34.125594 4.578546
2004-06-25 09:23:09 51°19.181 2°51.863 16.139034 4.33708 34.266204 4.511127
2004-06-25 09:24:09 51°19.213 2°51.921 16.167906 4.289727 33.822808 4.477418
2004-06-25 09:25:09 51°19.244 2°51.978 16.185265 4.349841 34.333493 4.544836
2004-06-25 09:26:09 51°19.276 2°52.035 16.211767 4.352793 34.344201 4.544836
2004-06-25 09:27:09 51°19.308 2°52.09 16.229586 4.337289 34.185715 4.578546
2004-06-25 09:28:09 51°19.341 2°52.142 16.23373 4.342774 34.223875 4.645965
2004-06-25 09:29:09 51°19.375 2°52.196 16.246033 4.345199 34.242073 4.747093
2004-06-25 09:30:09 51°19.408 2°52.252 16.258248 4.350156 34.27493 4.88193
2004-06-25 09:31:09 51°19.436 2°52.314 16.271657 4.353425 34.294816 5.050477
2004-06-25 09:32:09 51°19.465 2°52.373 16.271102 4.34541 34.218452 5.252734
2004-06-25 09:33:09 51°19.497 2°52.427 16.271102 4.361757 34.360591 5.45499
2004-06-25 09:34:09 51°19.531 2°52.477 16.272298 4.351527 34.269159 5.556118
2004-06-25 09:35:09 51°19.563 2°52.531 16.271358 4.346992 34.226022 5.657247
2004-06-25 09:36:09 51°19.585 2°52.594 16.261708 4.3433 34.201143 5.724665
2004-06-25 09:37:09 51°19.586 2°52.663 16.256028 4.351421 34.277155 5.859503
2004-06-25 09:38:08 51°19.574 2°52.715 16.251073 4.354374 34.307651 5.994341
2004-06-25 09:39:08 51°19.555 2°52.754 16.249792 4.351211 34.283589 6.162888
2004-06-25 09:40:09 51°19.532 2°52.776 16.255771 4.348574 34.258435 6.331435
2004-06-25 09:41:09 51°19.491 2°52.777 16.267344 4.358171 34.333456 6.398853
2004-06-25 09:42:09 51°19.444 2°52.752 16.277507 4.352054 34.274442 6.499982
2004-06-25 09:43:09 51°19.394 2°52.721 16.287454 4.346464 34.215015 6.499982
2004-06-25 09:44:09 51°19.345 2°52.681 16.292747 4.354901 34.282318 6.533691
2004-06-25 09:45:08 51°19.3 2°52.64 16.296674 4.353319 34.2652 6.60111
2004-06-25 09:46:09 51°19.258 2°52.592 16.284508 4.333386 34.091637 6.668529
2004-06-25 09:47:16 51°19.213 2°52.538 16.261622 4.336867 34.139398 6.668529
2004-06-25 09:48:16 51°19.175 2°52.486 16.266875 4.34098 34.182613 6.60111
2004-06-25 09:49:16 51°19.136 2°52.437 16.277208 4.357749 34.32399 6.634819
2004-06-25 09:50:17 51°19.097 2°52.386 16.284252 4.354585 34.290368 6.702238
2004-06-25 09:51:17 51°19.059 2°52.344 16.288777 4.336761 34.127046 6.735947
2004-06-25 09:52:16 51°19.02 2°52.3 16.29407 4.341613 34.164673 6.769657
2004-06-25 09:53:17 51°18.978 2°52.254 16.293985 4.358382 34.309147 6.735947
2004-06-25 09:54:17 51°18.936 2°52.212 16.290954 4.338343 34.132722 6.735947
2004-06-25 09:55:17 51°18.894 2°52.17 16.294497 4.359542 34.321917 6.803366
2004-06-25 09:56:17 51°18.854 2°52.125 16.297015 4.358065 34.304448 6.769657
2004-06-25 09:57:17 51°18.818 2°52.077 16.293473 4.356167 34.288366 6.803366
2004-06-25 09:58:17 51°18.786 2°52.025 16.29296 4.341718 34.164331 6.769657
2004-06-25 09:59:17 51°18.756 2°51.967 16.285917 4.340347 34.156072 6.803366
2004-06-25 10:00:17 51°18.725 2°51.913 16.275414 4.354058 34.282535 6.870785
2004-06-25 10:01:17 51°18.694 2°51.858 16.266875 4.354691 34.293848 6.904494
2004-06-25 10:02:16 51°18.665 2°51.796 16.264825 4.340136 34.172638 6.837076
2004-06-25 10:03:17 51°18.638 2°51.728 16.265337 4.35448 34.297731 6.837076
2004-06-25 10:04:16 51°18.609 2°51.666 16.260939 4.354691 34.303418 6.904494
2004-06-25 10:05:17 51°18.58 2°51.606 16.250262 4.36007 34.353386 6.904494
2004-06-25 10:06:17 51°18.551 2°51.549 16.240822 4.3568 34.334146 6.971913
2004-06-25 10:07:28 51°18.512 2°51.483 16.23326 4.359332 34.367341 6.938204
2004-06-25 10:08:28 51°18.48 2°51.426 16.220998 4.358699 34.366878 7.039332
2004-06-25 10:09:27 51°18.451 2°51.369 16.203134 4.355852 34.358393 7.073042
2004-06-25 10:10:26 51°18.423 2°51.31 16.198304 4.355219 34.35729 7.106751
2004-06-25 10:11:25 51°18.395 2°51.252 16.198988 4.354375 34.353684 7.106751
2004-06-25 10:12:28 51°18.366 2°51.189 16.196252 4.344672 34.269966 7.207879
2004-06-25 10:13:29 51°18.345 2°51.158 16.185565 4.350157 34.322845 7.275298
2004-06-25 10:14:28 51°18.334 2°51.052 16.179494 4.349629 34.324589 7.511264
2004-06-25 10:15:29 51°18.433 2°51.003 16.163672 4.346149 34.302817 7.443845
2004-06-25 10:16:29 51°18.517 2°51.224 16.15037 4.343935 34.297335 7.410136
2004-06-25 10:17:29 51°18.61 2°51.526 16.193944 4.349946 34.342752 7.544973
2004-06-25 10:18:30 51°18.705 2°51.837 16.264312 4.35448 34.327745 7.17417
2004-06-25 10:19:30 51°18.798 2°52.14 16.319676 4.349523 34.235586 7.073042
2004-06-25 10:20:28 51°18.885 2°52.433 16.360797 4.36376 34.32208 7.106751
2004-06-25 10:21:30 51°18.984 2°52.747 16.3903 4.364181 34.292054 6.971913
2004-06-25 10:22:30 51°19.083 2°53.052 16.386378 4.367345 34.30397 7.005623
2004-06-25 10:23:30 51°19.175 2°53.36 16.33495 4.368716 34.331929 7.005623
2004-06-25 10:24:30 51°19.267 2°53.66 16.276781 4.363655 34.34028 7.241589
2004-06-25 10:25:30 51°19.357 2°53.97 16.258505 4.349312 34.254105 7.410136
2004-06-25 10:26:30 51°19.452 2°54.272 16.269309 4.358804 34.336479 7.511264
2004-06-25 10:27:30 51°19.548 2°54.58 16.266576 4.345304 34.213068 7.410136
2004-06-25 10:28:30 51°19.649 2°54.879 16.252995 4.357433 34.328226 7.477554
2004-06-25 10:29:35 51°19.742 2°55.209 16.222066 4.356168 34.333679 7.511264
2004-06-25 10:30:36 51°19.821 2°55.526 16.203219 4.350895 34.315289 7.679811
2004-06-25 10:31:34 51°19.9 2°55.827 16.106427 4.350052 34.350092 7.882067
2004-06-25 10:32:36 51°19.986 2°56.148 16.012626 4.342354 34.356461 8.118033
2004-06-25 10:33:36 51°20.066 2°56.457 15.993421 4.337503 34.373976 8.353999
2004-06-25 10:34:36 51°20.148 2°56.77 15.982102 4.332652 34.33998 8.657383
2004-06-25 10:35:34 51°20.236 2°57.068 15.974297 4.335183 34.368225 8.657383
2004-06-25 10:36:35 51°20.32 2°57.38 15.960444 4.337715 34.399063 8.724802
2004-06-25 10:37:35 51°20.398 2°57.69 15.93835 4.334235 34.381732 8.758512
2004-06-25 10:38:34 51°20.472 2°57.994 15.939466 4.328013 34.346503 8.792221
2004-06-25 10:39:34 51°20.556 2°58.296 15.95135 4.328751 34.343382 8.893349
2004-06-25 10:40:36 51°20.641 2°58.612 15.972367 4.330332 34.341948 8.927059
2004-06-25 10:41:36 51°20.726 2°58.916 16.008897 4.331492 34.331626 8.994477
2004-06-25 10:42:35 51°20.805 2°59.216 16.060356 4.333706 34.306879 9.129315
2004-06-25 10:43:36 51°20.884 2°59.533 16.130563 4.336659 34.292584 9.163024
2004-06-25 10:44:36 51°20.959 2°59.816 16.253209 4.353426 34.35491 9.028187
2004-06-25 10:45:36 51°21.021 2°59.911 16.310331 4.356167 34.304944 8.82593
2004-06-25 10:46:34 51°21.052 2°59.934 16.329618 4.366186 34.356187 8.522546
2004-06-25 10:47:35 51°21.068 2°59.943 16.334225 4.365342 34.335366 8.522546
2004-06-25 10:48:36 51°21.088 2°59.943 16.322194 4.366291 34.34946 8.691093
2004-06-25 10:49:40 51°21.119 2°59.958 16.324498 4.362494 34.317951 8.556255
2004-06-25 10:50:40 51°21.133 2°59.966 16.317671 4.365764 34.352473 8.691093
2004-06-25 10:51:40 51°21.145 2°59.972 16.304399 4.363444 34.339698 8.82593
2004-06-25 10:52:40 51°21.174 3°0.019 16.295863 4.362178 34.333019 8.85964
2004-06-25 10:53:40 51°21.181 3°0.09 16.277507 4.364393 34.36913 8.724802
2004-06-25 10:54:40 51°21.186 3°0.16 16.269778 4.361335 34.350483 8.589965
2004-06-25 10:55:40 51°21.198 3°0.224 16.259231 4.354269 34.294596 8.589965
2004-06-25 10:56:45 51°21.219 3°0.287 16.256796 4.361019 34.357919 8.556255
2004-06-25 10:57:45 51°21.246 3°0.333 16.249151 4.358382 34.342343 8.724802
2004-06-25 10:58:44 51°21.277 3°0.371 16.221168 4.356273 34.335248 8.792221
2004-06-25 10:59:49 51°21.315 3°0.416 16.200099 4.354691 34.343675 8.927059
2004-06-25 11:00:49 51°21.351 3°0.467 16.18565 4.358383 34.390987 8.85964
2004-06-25 11:01:48 51°21.376 3°0.53 16.164014 4.353321 34.367436 8.85964
2004-06-25 11:02:49 51°21.393 3°0.603 16.150156 4.353216 34.377405 8.82593
2004-06-25 11:03:49 51°21.412 3°0.672 16.14066 4.353743 34.390408 8.893349
2004-06-25 11:04:49 51°21.435 3°0.734 16.144125 4.351001 34.373231 8.927059
2004-06-25 11:05:48 51°21.465 3°0.788 16.139462 4.349735 34.358837 8.927059
2004-06-25 11:06:48 51°21.496 3°0.84 16.135825 4.34731 34.343811 8.994477
2004-06-25 11:07:49 51°21.531 3°0.891 16.129835 4.35079 34.373933 9.061896
2004-06-25 11:08:49 51°21.555 3°0.954 16.120935 4.349841 34.376455 9.095606
2004-06-25 11:09:49 51°21.582 3°1.018 16.107026 4.346361 34.357876 9.567537
2004-06-25 11:10:49 51°21.612 3°1.075 16.115286 4.346466 34.356241 9.500118
2004-06-25 11:11:49 51°21.65 3°1.12 16.116784 4.351318 34.397864 9.365281
2004-06-25 11:12:49 51°21.687 3°1.166 16.117982 4.348576 34.3704 9.365281
2004-06-25 11:13:48 51°21.718 3°1.22 16.114559 4.350158 34.382464 9.230443
2004-06-25 11:14:49 51°21.744 3°1.285 16.105442 4.346888 34.36254 9.196734
2004-06-25 11:15:49 51°21.761 3°1.354 16.098337 4.350158 34.398529 9.163024
2004-06-25 11:16:49 51°21.78 3°1.422 16.094912 4.341932 34.328967 9.163024
2004-06-25 11:17:49 51°21.802 3°1.486 16.096325 4.343936 34.348619 9.365281
2004-06-25 11:18:49 51°21.829 3°1.546 16.104543 4.340561 34.314916 9.331571
2004-06-25 11:19:48 51°21.858 3°1.6 16.115971 4.34499 34.343184 9.196734
2004-06-25 11:20:57 51°21.898 3°1.654 16.108567 4.346466 34.358809 9.230443
2004-06-25 11:21:57 51°21.935 3°1.697 16.104543 4.347099 34.365048 9.297862
2004-06-25 11:22:58 51°21.963 3°1.752 16.094997 4.345517 34.356834 9.466409
2004-06-25 11:23:57 51°21.956 3°1.83 16.082453 4.341404 34.332003 9.4327
2004-06-25 11:24:54 51°21.924 3°1.878 16.07132 4.344569 34.369637 9.803503
2004-06-25 11:26:07 51°21.88 3°1.9 16.068879 4.343725 34.367955 9.837212
2004-06-25 11:27:08 51°21.839 3°1.895 16.119223 4.345412 34.376462 9.736084
2004-06-25 11:28:08 51°21.787 3°1.852 16.285405 4.35195 34.334192 9.39899
2004-06-25 11:29:07 51°21.752 3°1.793 16.353632 4.36376 34.334192 9.230443
2004-06-25 11:30:08 51°21.721 3°1.74 16.372011 4.364603 34.303396 9.39899
2004-06-25 11:31:08 51°21.691 3°1.684 16.382712 4.370298 34.34202 9.331571
2004-06-25 11:32:16 51°21.656 3°1.62 16.390001 4.366396 34.30135 9.533828
2004-06-25 11:33:17 51°21.624 3°1.563 16.398781 4.363126 34.263721 9.601247
2004-06-25 11:34:17 51°21.592 3°1.5 16.405515 4.370614 34.321893 9.668665
2004-06-25 11:35:17 51°21.56 3°1.439 16.409308 4.372196 34.330707 9.702375
2004-06-25 11:36:17 51°21.527 3°1.374 16.404066 4.371564 34.326418 9.702375
2004-06-25 11:37:23 51°21.493 3°1.3 16.39827 4.376099 34.369453 9.769794
2004-06-25 11:38:22 51°21.464 3°1.238 16.399676 4.375255 34.365858 9.702375
2004-06-25 11:39:22 51°21.432 3°1.175 16.403001 4.37536 34.362965 9.567537
2004-06-25 11:40:22 51°21.401 3°1.112 16.411651 4.365341 34.27302 9.668665
2004-06-25 11:41:22 51°21.369 3°1.046 16.417276 4.368188 34.289144 9.702375
2004-06-25 11:42:22 51°21.337 3°0.978 16.417659 4.375677 34.351744 9.837212
2004-06-25 11:43:20 51°21.307 3°0.914 16.429077 4.3742 34.335594 9.904631
2004-06-25 11:44:21 51°21.276 3°0.854 16.422772 4.376309 34.349034 9.803503
2004-06-25 11:45:22 51°21.242 3°0.788 16.422218 4.376204 34.353196 9.904631
2004-06-25 11:46:22 51°21.208 3°0.718 16.425967 4.374622 34.337392 9.904631
2004-06-25 11:47:22 51°21.176 3°0.647 16.440238 4.378841 34.369995 9.769794
2004-06-25 11:48:20 51°21.147 3°0.578 16.442793 4.378524 34.358311 9.668665
2004-06-25 11:49:21 51°21.114 3°0.513 16.439769 4.377575 34.349976 9.668665
2004-06-25 11:50:22 51°21.081 3°0.447 16.445051 4.373145 34.310448 9.803503
2004-06-25 11:51:22 51°21.048 3°0.381 16.448926 4.376309 34.333145 9.870922
2004-06-25 11:52:21 51°21.014 3°0.319 16.444284 4.374094 34.314336 9.870922
2004-06-25 11:53:22 51°20.981 3°0.252 16.440067 4.379895 34.369079 9.938341
2004-06-25 11:54:22 51°20.951 3°0.183 16.436489 4.369137 34.278437 9.803503
2004-06-25 11:55:22 51°20.925 3°0.109 16.443901 4.376309 34.339499 9.736084
2004-06-25 11:56:21 51°20.907 3°0.03 16.448969 4.379368 34.361269 9.702375
2004-06-25 11:57:21 51°20.895 2°59.952 16.453143 4.378102 34.344437 9.668665
2004-06-25 11:58:21 51°20.885 2°59.893 16.446669 4.377153 34.33801 9.736084
2004-06-25 11:59:22 51°20.873 2°59.865 16.443773 4.373461 34.308147 9.803503
2004-06-25 12:00:20 51°20.868 2°59.848 16.423752 4.379579 34.366937 9.904631
2004-06-25 12:01:21 51°20.951 2°59.841 16.42618 4.374411 34.344442 10.275435
2004-06-25 12:02:22 51°21.112 2°59.993 16.358281 4.374411 34.340626 10.005759
2004-06-25 12:03:21 51°21.249 3°0.217 16.359688 4.367979 34.361762 10.106888
2004-06-25 12:04:21 51°21.378 3°0.466 16.387614 4.367661 34.305479 9.938341
2004-06-25 12:05:21 51°21.506 3°0.716 16.202621 4.368084 34.351848 9.567537
2004-06-25 12:06:22 51°21.634 3°0.976 16.278019 4.266631 33.602384 14.286853
2004-06-25 12:07:22 51°21.762 3°1.227 16.406112 4.341612 34.142462 10.309144
2004-06-25 12:08:20 51°21.883 3°1.473 16.384204 4.340029 34.037535 10.275435
2004-06-25 12:09:20 51°22.009 3°1.725 16.416807 4.36608 34.322748 9.837212
2004-06-25 12:10:20 51°22.137 3°1.98 16.415018 4.354477 34.157998 10.174306
2004-06-25 12:11:21 51°22.268 3°2.241 16.410416 4.36629 34.270566 10.275435
2004-06-25 12:12:20 51°22.397 3°2.493 16.420386 4.368505 34.295734 10.410272
2004-06-25 12:13:21 51°22.526 3°2.751 16.457571 4.367872 34.257817 10.342853
2004-06-25 12:14:22 51°22.675 3°2.986 16.422602 4.368188 34.264397 10.410272
2004-06-25 12:15:22 51°22.824 3°3.208 16.424093 4.361966 34.226256 10.679947
2004-06-25 12:16:22 51°22.98 3°3.428 16.433976 4.373462 34.331652 11.050751
2004-06-25 12:17:20 51°23.134 3°3.631 16.429077 4.364286 34.235218 10.915913
2004-06-25 12:18:19 51°23.317 3°3.779 16.382286 4.370614 34.295843 10.747366
2004-06-25 12:19:24 51°23.525 3°3.914 16.283441 4.363127 34.298683 11.185589
2004-06-25 12:20:26 51°23.721 3°4.047 16.238387 4.356695 34.322357 11.421554
2004-06-25 12:21:25 51°23.909 3°4.173 16.232406 4.351843 34.275772 11.320426
2004-06-25 12:22:25 51°24.039 3°4.376 16.210656 4.3568 34.341817 12.264289
2004-06-25 12:23:23 51°24.027 3°4.693 16.169017 4.349629 34.31755 12.196871
2004-06-25 12:24:25 51°24.018 3°5.034 16.213006 4.351211 34.332795 12.432836
2004-06-25 12:25:26 51°24.007 3°5.371 16.281947 4.353742 34.319316 12.466546
2004-06-25 12:26:24 51°24.03 3°5.69 16.292662 4.359226 34.32232 12.601383
2004-06-25 12:27:25 51°24.199 3°5.85 16.316647 4.361862 34.31748 12.297999
2004-06-25 12:28:26 51°24.403 3°5.959 16.354016 4.366185 34.327497 12.23058
2004-06-25 12:29:26 51°24.588 3°6.119 16.380794 4.36956 34.337439 11.65752
2004-06-25 12:30:25 51°24.768 3°6.28 16.428183 4.371247 34.323002 11.590101
2004-06-25 12:31:26 51°24.952 3°6.447 16.465832 4.369243 34.27302 11.724939
2004-06-25 12:32:26 51°25.133 3°6.605 16.507035 4.377152 34.305643 11.69123
2004-06-25 12:33:26 51°25.31 3°6.774 16.529924 4.375886 34.262254 11.65752
2004-06-25 12:34:24 51°25.466 3°6.962 16.538772 4.37346 34.235315 11.758648
2004-06-25 12:35:26 51°25.633 3°7.164 16.56097 4.373671 34.220742 11.792358
2004-06-25 12:36:24 51°25.792 3°7.354 16.562671 4.368925 34.169111 11.826067
2004-06-25 12:37:25 51°25.963 3°7.547 16.555315 4.371772 34.195923 11.758648
2004-06-25 12:38:25 51°26.127 3°7.741 16.534859 4.369874 34.186873 11.758648
2004-06-25 12:39:26 51°26.28 3°7.967 16.505333 4.373249 34.238522 11.590101
2004-06-25 12:40:26 51°26.403 3°8.141 16.496396 4.366183 34.194302 11.893486
2004-06-25 12:41:26 51°26.434 3°8.163 16.496694 4.367238 34.209863 11.354136
2004-06-25 12:42:26 51°26.442 3°8.182 16.48052 4.373039 34.268939 11.421554
2004-06-25 12:43:25 51°26.482 3°8.217 16.484223 4.369242 34.247041 11.792358
2004-06-25 12:44:26 51°26.517 3°8.269 16.461829 4.366078 34.216763 11.556392
2004-06-25 12:45:26 51°26.547 3°8.326 16.448969 4.364496 34.222503 11.320426
2004-06-25 12:46:26 51°26.578 3°8.378 16.441345 4.365657 34.242182 11.387845
2004-06-25 12:47:33 51°26.613 3°8.432 16.424902 4.369981 34.289018 11.556392
2004-06-25 12:48:32 51°26.646 3°8.479 16.421409 4.365657 34.261837 11.623811
2004-06-25 12:49:32 51°26.686 3°8.537 16.39648 4.37072 34.318369 11.590101
2004-06-25 12:50:33 51°26.722 3°8.593 16.387785 4.368611 34.313186 11.556392
2004-06-25 12:51:33 51°26.76 3°8.639 16.405813 4.369349 34.313951 11.893486
2004-06-25 12:52:32 51°26.797 3°8.671 16.409563 4.367028 34.286574 11.960905
2004-06-25 12:53:32 51°26.832 3°8.7 16.410288 4.372829 34.332451 11.994614
2004-06-25 12:54:33 51°26.865 3°8.751 16.389405 4.366185 34.285514 11.826067
2004-06-25 12:55:33 51°26.897 3°8.811 16.381902 4.368505 34.317983 11.556392
2004-06-25 12:56:32 51°26.929 3°8.868 16.374569 4.367872 34.315601 11.488973
2004-06-25 12:57:32 51°26.963 3°8.92 16.37312 4.357537 34.227932 11.556392
2004-06-25 12:58:33 51°27 3°8.968 16.371883 4.365974 34.305909 11.522683
2004-06-25 12:59:33 51°27.039 3°9.004 16.371286 4.366712 34.309855 11.69123
2004-06-25 13:00:32 51°27.075 3°9.053 16.362375 4.369771 34.341841 11.556392
2004-06-25 13:01:32 51°27.107 3°9.118 16.356021 4.365236 34.310871 11.320426
2004-06-25 13:02:33 51°27.132 3°9.193 16.35069 4.361228 34.281349 11.253007
2004-06-25 13:03:33 51°27.157 3°9.267 16.361564 4.362916 34.293646 11.320426
2004-06-25 13:04:33 51°27.184 3°9.336 16.37231 4.364076 34.29685 11.455264
2004-06-25 13:05:33 51°27.214 3°9.403 16.38527 4.344248 34.109283 11.556392
2004-06-25 13:06:32 51°27.243 3°9.469 16.396821 4.365341 34.283818 11.556392
2004-06-25 13:07:33 51°27.271 3°9.543 16.405686 4.371142 34.325255 11.623811
2004-06-25 13:08:32 51°27.293 3°9.617 16.41391 4.36861 34.300473 11.69123
2004-06-25 13:09:32 51°27.321 3°9.683 16.423454 4.364497 34.25165 11.758648
2004-06-25 13:10:32 51°27.352 3°9.743 16.419065 4.369981 34.294731 11.826067
2004-06-25 13:11:33 51°27.388 3°9.792 16.416083 4.365973 34.263346 11.960905
2004-06-25 13:12:32 51°27.425 3°9.831 16.403086 4.373145 34.333323 12.062033
2004-06-25 13:13:32 51°27.458 3°9.887 16.372395 4.361439 34.24826 11.826067
2004-06-25 13:14:33 51°27.479 3°9.963 16.348898 4.368611 34.334185 11.623811
2004-06-25 13:15:32 51°27.474 3°10.032 16.323559 4.365553 34.330849 11.792358
2004-06-25 13:16:33 51°27.461 3°10.089 16.313233 4.36608 34.350792 11.893486
2004-06-25 13:17:33 51°27.446 3°10.138 16.30824 4.365975 34.356882 11.927195
2004-06-25 13:18:33 51°27.425 3°10.197 16.307515 4.34214 34.150273 12.062033
2004-06-25 13:19:33 51°27.369 3°10.257 16.322962 4.350471 34.214689 12.23058
2004-06-25 13:20:32 51°27.306 3°10.262 16.347363 4.360596 34.288508 11.994614
2004-06-25 13:21:33 51°27.256 3°10.25 16.368472 4.360279 34.266644 12.028324
2004-06-25 13:22:32 51°27.214 3°10.233 16.390982 4.362283 34.265833 12.432836
2004-06-25 13:23:32 51°27.172 3°10.206 16.409904 4.365341 34.276195 12.635093
2004-06-25 13:24:33 51°27.127 3°10.176 16.422857 4.369138 34.294306 12.702512
2004-06-25 13:25:33 51°27.084 3°10.139 16.431591 4.37093 34.301796 12.702512
2004-06-25 13:26:33 51°27.042 3°10.104 16.439088 4.370614 34.290765 12.702512
2004-06-25 13:27:32 51°27.005 3°10.064 16.443006 4.361333 34.206136 12.871059
2004-06-25 13:28:33 51°26.97 3°10.013 16.446414 4.371668 34.293043 13.005896
2004-06-25 13:29:32 51°26.941 3°9.96 16.452163 4.369664 34.272284 13.073315
2004-06-25 13:30:32 51°26.914 3°9.904 16.457955 4.366922 34.243152 13.107024
2004-06-25 13:31:33 51°26.886 3°9.85 16.465193 4.369137 34.255615 13.107024
2004-06-25 13:32:33 51°26.862 3°9.795 16.470558 4.365762 34.220314 13.174443
2004-06-25 13:33:32 51°26.841 3°9.729 16.468599 4.369242 34.25274 13.241862
2004-06-25 13:34:32 51°26.827 3°9.654 16.469579 4.36302 34.197531 13.309281
2004-06-25 13:35:32 51°26.817 3°9.581 16.460254 4.369559 34.256149 13.3767
2004-06-25 13:36:32 51°26.808 3°9.51 16.458551 4.368188 34.247921 13.275571
2004-06-25 13:37:33 51°26.797 3°9.44 16.465704 4.373883 34.295986 12.904768
2004-06-25 13:38:33 51°26.784 3°9.377 16.456166 4.364496 34.216174 12.76993
2004-06-25 13:39:32 51°26.768 3°9.307 16.43338 4.360067 34.191234 13.208153
2004-06-25 13:40:32 51°26.752 3°9.237 16.428055 4.367661 34.27055 13.545247
2004-06-25 13:41:33 51°26.733 3°9.162 16.421792 4.369981 34.298541 13.545247
2004-06-25 13:42:32 51°26.711 3°9.089 16.41391 4.363653 34.241071 13.275571
2004-06-25 13:43:33 51°26.679 3°9.015 16.398781 4.359857 34.219777 13.477828
2004-06-25 13:44:33 51°26.642 3°8.952 16.392814 4.36745 34.294728 13.477828
2004-06-25 13:45:33 51°26.6 3°8.895 16.390172 4.362599 34.254644 13.275571
2004-06-25 13:46:33 51°26.56 3°8.831 16.385398 4.356376 34.205054 13.107024
2004-06-25 13:47:33 51°26.529 3°8.759 16.382073 4.364076 34.274602 12.972187
2004-06-25 13:48:33 51°26.507 3°8.691 16.371414 4.366923 34.305985 12.972187
2004-06-25 13:49:33 51°26.49 3°8.652 16.3544 4.35606 34.223205 13.073315
2004-06-25 13:50:33 51°26.471 3°8.589 16.345998 4.368611 34.340555 13.107024
2004-06-25 13:51:33 51°26.406 3°8.34 16.338533 4.359541 34.261424 12.938477
2004-06-25 13:52:33 51°26.249 3°8.072 16.258889 4.360491 34.309234 12.837349
2004-06-25 13:53:33 51°26.072 3°7.824 16.251885 4.35448 34.317521 13.949759
2004-06-25 13:54:33 51°25.888 3°7.583 16.304698 4.359964 34.330101 14.253144
2004-06-25 13:55:33 51°25.706 3°7.342 16.338576 4.356272 34.261915 14.152016
2004-06-25 13:56:33 51°25.525 3°7.099 16.364507 4.360279 34.27173 14.691366
2004-06-25 13:57:32 51°25.347 3°6.862 16.362673 4.358592 34.244184 14.48911
2004-06-25 13:58:38 51°25.15 3°6.591 16.34941 4.361967 34.282118 14.354272
2004-06-25 13:59:38 51°24.971 3°6.345 16.352865 4.360279 34.266008 13.882341
2004-06-25 14:00:38 51°24.792 3°6.097 16.344804 4.358486 34.253421 14.118306
2004-06-25 14:01:38 51°24.613 3°5.852 16.376104 4.362494 34.295026 14.691366
2004-06-25 14:02:38 51°24.436 3°5.608 16.453355 4.356271 34.187023 14.017178
2004-06-25 14:03:44 51°24.242 3°5.334 16.52835 4.371352 34.259841 13.275571
2004-06-25 14:04:44 51°24.066 3°5.087 16.576615 4.365339 34.14718 12.904768
2004-06-25 14:05:44 51°23.893 3°4.844 16.599396 4.372088 34.167821 12.567674
2004-06-25 14:06:49 51°23.705 3°4.58 16.525032 4.38042 34.252046 12.365418
2004-06-25 14:07:49 51°23.531 3°4.334 16.499588 4.378628 34.291345 12.399127
2004-06-25 14:08:54 51°23.343 3°4.069 16.487032 4.37673 34.290537 12.702512
2004-06-25 14:09:54 51°23.173 3°3.812 16.515375 4.376414 34.280797 13.174443
2004-06-25 14:10:54 51°22.998 3°3.56 16.51797 4.373144 34.236966 14.152016
2004-06-25 14:11:54 51°22.825 3°3.305 16.524522 4.377679 34.272902 14.556529
2004-06-25 14:12:54 51°22.652 3°3.051 16.499545 4.376519 34.267798 14.826204
2004-06-25 14:13:54 51°22.479 3°2.792 16.504567 4.369031 34.222416 15.095879
2004-06-25 14:14:54 51°22.304 3°2.538 16.469834 4.373355 34.264115 14.657657
2004-06-25 14:15:54 51°22.131 3°2.281 16.478264 4.369137 34.258149 14.219435
2004-06-25 14:16:54 51°21.957 3°2.026 16.414975 4.379156 34.292167 13.275571
2004-06-25 14:17:54 51°21.782 3°1.778 16.360285 4.368927 34.327418 13.309281
2004-06-25 14:18:54 51°21.61 3°1.523 16.380708 4.360701 34.256374 13.241862
2004-06-25 14:19:54 51°21.438 3°1.274 16.441601 4.368505 34.302723 12.938477
2004-06-25 14:20:54 51°21.284 3°0.997 16.471069 4.382004 34.360262 12.533965
2004-06-25 14:21:54 51°21.131 3°0.717 16.604156 4.362281 34.152542 12.23058
2004-06-25 14:22:54 51°20.977 3°0.438 16.578698 4.38928 34.316929 11.994614
2004-06-25 14:23:54 51°20.824 3°0.155 16.633214 4.388331 34.325064 12.028324
2004-06-25 14:24:54 51°20.676 2°59.868 16.662133 4.385376 34.227942 12.129452
2004-06-25 14:25:53 51°20.529 2°59.586 16.654533 4.384111 34.218776 12.297999
2004-06-25 14:26:54 51°20.372 2°59.297 16.673892 4.385376 34.232977 12.432836
2004-06-25 14:27:53 51°20.222 2°59.017 16.684928 4.386642 34.230814 12.668802
2004-06-25 14:28:54 51°20.07 2°58.722 16.639288 4.381579 34.184727 12.533965
2004-06-25 14:29:54 51°19.92 2°58.432 16.627098 4.395607 34.339412 12.163161
2004-06-25 14:30:54 51°19.769 2°58.138 16.632492 4.395396 34.338832 12.028324
2004-06-25 14:31:54 51°19.619 2°57.846 16.623402 4.393182 34.326415 11.994614
2004-06-25 14:32:54 51°19.47 2°57.552 16.585542 4.390651 34.312492 11.960905
2004-06-25 14:33:54 51°19.319 2°57.263 16.547363 4.388647 34.338594 12.196871
2004-06-25 14:34:54 51°19.169 2°56.97 16.556676 4.38464 34.311727 12.297999
2004-06-25 14:35:54 51°19.02 2°56.678 16.574277 4.388331 34.33519 12.23058
2004-06-25 14:36:53 51°18.871 2°56.392 16.593659 4.389596 34.320962 12.196871
2004-06-25 14:37:57 51°18.71 2°56.084 16.611124 4.38717 34.299105 12.196871
2004-06-25 14:38:59 51°18.556 2°55.785 16.622 4.394342 34.344147 12.095742
2004-06-25 14:40:04 51°18.395 2°55.473 16.594042 4.396451 34.358802 11.960905
2004-06-25 14:41:04 51°18.246 2°55.183 16.567348 4.386749 34.303629 11.927195
2004-06-25 14:42:04 51°18.097 2°54.897 16.524522 4.38696 34.333947 11.792358
2004-06-25 14:43:04 51°17.947 2°54.612 16.469195 4.382425 34.337936 11.758648
2004-06-25 14:44:04 51°17.794 2°54.333 16.405686 4.380528 34.354293 11.69123
2004-06-25 14:45:04 51°17.639 2°54.057 16.348898 4.367134 34.300845 11.758648
2004-06-25 14:46:04 51°17.485 2°53.783 16.293046 4.36819 34.361705 11.960905
2004-06-25 14:47:04 51°17.315 2°53.537 16.303844 4.365237 34.364426 12.23058
2004-06-25 14:48:02 51°17.135 2°53.336 16.33704 4.36376 34.335468 12.095742
2004-06-25 14:49:04 51°16.904 2°53.319 16.421324 4.372935 34.364569 11.758648
2004-06-25 14:50:04 51°16.683 2°53.44 16.501077 4.378418 34.334511 11.286717
2004-06-25 14:51:04 51°16.472 2°53.578 16.537666 4.383058 34.330168 11.08446
2004-06-25 14:52:04 51°16.261 2°53.715 16.539069 4.385273 34.324866 10.915913
2004-06-25 14:53:04 51°16.049 2°53.859 16.517374 4.386117 34.344929 10.949623
2004-06-25 14:54:04 51°15.837 2°53.991 16.572789 4.385483 34.319749 10.814785
2004-06-25 14:55:04 51°15.62 2°54.114 16.675335 4.393604 34.360464 10.781076
2004-06-25 14:56:04 51°15.408 2°54.244 16.876837 4.402988 34.289171 10.882204
2004-06-25 14:57:04 51°15.197 2°54.381 16.978086 4.41501 34.262784 10.882204
2004-06-25 14:58:04 51°14.987 2°54.516 17.203771 0.101847 0.600174 45.939982
2004-06-25 14:59:04 51°14.778 2°54.653 17.259688 0.087601 0.513322 44.659024
2004-06-25 15:00:04 51°14.594 2°54.835 17.335196 0.082818 0.484322 44.861281
2004-06-25 15:01:10 51°14.401 2°55.068 17.438838 0.076788 0.447741 43.546614
2004-06-25 15:02:09 51°14.244 2°55.294 17.540605 0.072629 0.422531 43.816289
2004-06-25 15:03:09 51°14.1 2°55.429 17.609065 0.069199 0.401758 43.546614
2004-06-25 15:04:10 51°13.973 2°55.522 17.683356 0.0666 0.386004 43.849999